Time;durP1;ratioP1;P1;durP2;ratioP2;P2;SDS_P1;SDS_P2;PMS_P1;PMS_P2;Temp;Humidity;BMP_temperature;BMP_pressure;BME280_temperature;BME280_humidity;BME280_pressure;Samples;Min_cycle;Max_cycle;Signal;HPM_P1;HPM_P2
2022/09/08 00:02:24;;;;;;;0.85;0.80;;;;;;;7.13;62.87;96821.63;6299584;28;20079;-59
2022/09/08 00:05:29;;;;;;;;;;;;;;;7.12;62.59;96825.16;6303064;28;20122;-60
2022/09/08 00:08:31;;;;;;;1.45;1.23;;;;;;;7.08;63.07;96822.78;6311241;28;19931;-60
2022/09/08 00:11:38;;;;;;;0.93;0.93;;;;;;;7.10;63.06;96827.00;6312030;28;20505;-62
2022/09/08 00:14:40;;;;;;;1.05;0.95;;;;;;;7.09;62.92;96825.31;6314040;28;20521;-60
2022/09/08 00:17:43;;;;;;;1.17;1.02;;;;;;;7.07;63.33;96821.91;6309181;28;20044;-60
2022/09/08 00:20:45;;;;;;;2.33;1.63;;;;;;;7.12;63.18;96821.69;6308183;28;20048;-60
2022/09/08 00:23:51;;;;;;;1.15;1.00;;;;;;;7.13;63.10;96826.00;6312627;28;20032;-60
2022/09/08 00:26:52;;;;;;;1.58;1.23;;;;;;;7.02;63.49;96828.31;6312577;28;20820;-60
2022/09/08 00:29:54;;;;;;;1.25;1.15;;;;;;;7.03;63.65;96827.41;6310119;28;20139;-60
2022/09/08 00:32:55;;;;;;;2.17;1.88;;;;;;;6.91;64.04;96836.72;6308077;28;20036;-60
2022/09/08 00:35:59;;;;;;;1.33;0.95;;;;;;;6.92;64.11;96830.56;6320354;28;20441;-60
2022/09/08 00:39:01;;;;;;;1.83;1.00;;;;;;;6.97;64.49;96837.25;6319680;28;20048;-61
2022/09/08 00:42:06;;;;;;;2.00;0.93;;;;;;;7.03;63.95;96835.25;6319894;28;20040;-61
2022/09/08 00:45:10;;;;;;;1.63;1.02;;;;;;;7.05;64.31;96833.38;6320218;28;20048;-61
2022/09/08 00:48:16;;;;;;;0.95;0.90;;;;;;;7.11;64.09;96835.72;6319831;28;20139;-60
2022/09/08 00:51:22;;;;;;;1.27;1.10;;;;;;;7.19;63.89;96842.22;6320055;28;20036;-60
2022/09/08 00:54:25;;;;;;;1.00;1.00;;;;;;;7.15;64.27;96838.06;6319539;28;20143;-60
2022/09/08 00:57:27;;;;;;;1.88;1.02;;;;;;;7.18;64.25;96835.28;6319717;28;20075;-60
2022/09/08 01:00:34;;;;;;;1.88;1.40;;;;;;;7.29;63.81;96834.75;6319470;28;20556;-60
2022/09/08 01:03:39;;;;;;;1.67;1.20;;;;;;;7.24;64.08;96838.53;6312500;28;20058;-60
2022/09/08 01:14:04;;;;;;;1.60;1.27;;;;;;;7.35;64.34;96841.41;6312516;28;20078;-61
2022/09/08 01:17:18;;;;;;;3.13;2.20;;;;;;;7.33;64.38;96845.88;6311669;28;20059;-60
2022/09/08 01:20:28;;;;;;;1.23;1.10;;;;;;;7.41;64.44;96851.56;6313904;28;20197;-60
2022/09/08 01:23:56;;;;;;;1.75;1.30;;;;;;;7.38;64.29;96854.34;6317943;28;20047;-60
2022/09/08 01:27:21;;;;;;;2.30;1.60;;;;;;;7.41;64.61;96859.41;6318227;28;20044;-60
2022/09/08 01:30:23;;;;;;;4.05;2.10;;;;;;;7.41;64.14;96862.03;6319199;28;20532;-61
2022/09/08 01:33:24;;;;;;;2.38;1.70;;;;;;;7.40;64.39;96860.34;6317870;28;20051;-61
2022/09/08 01:36:26;;;;;;;1.88;1.45;;;;;;;7.34;64.36;96858.06;6303392;28;20412;-60
2022/09/08 01:39:28;;;;;;;1.70;1.50;;;;;;;7.41;64.24;96856.81;6318470;28;20097;-60
2022/09/08 01:42:35;;;;;;;1.60;1.50;;;;;;;7.38;64.33;96856.97;6319251;28;20113;-60
2022/09/08 01:45:37;;;;;;;3.08;1.33;;;;;;;7.29;64.35;96866.16;6318505;28;20052;-61
2022/09/08 01:48:41;;;;;;;1.67;1.27;;;;;;;7.35;64.49;96857.13;6318931;28;20048;-58
2022/09/08 01:51:48;;;;;;;1.70;1.42;;;;;;;7.27;64.69;96854.91;6316252;28;20040;-60
2022/09/08 01:54:51;;;;;;;2.08;1.92;;;;;;;7.31;64.20;96866.09;6318672;28;20044;-61
2022/09/08 01:57:55;;;;;;;3.08;1.98;;;;;;;7.19;64.58;96851.88;6318926;28;20174;-61
2022/09/08 02:01:01;;;;;;;2.63;2.13;;;;;;;7.15;64.57;96856.38;6319255;28;20094;-61
2022/09/08 02:04:06;;;;;;;3.10;1.90;;;;;;;7.08;65.12;96862.03;6318941;28;20044;-61
2022/09/08 02:07:12;;;;;;;3.20;2.42;;;;;;;7.08;65.15;96849.78;6294073;28;20052;-60
2022/09/08 02:10:14;;;;;;;7.72;2.95;;;;;;;7.06;65.00;96867.34;6296099;28;20044;-60
2022/09/08 02:13:15;;;;;;;2.50;2.03;;;;;;;7.16;64.97;96872.94;6318938;28;20523;-60
2022/09/08 02:16:19;;;;;;;2.42;1.85;;;;;;;7.07;64.75;96876.03;6310516;28;20048;-60
2022/09/08 02:19:20;;;;;;;2.60;1.95;;;;;;;6.97;65.28;96879.09;6315722;28;20043;-61
2022/09/08 02:22:26;;;;;;;3.20;2.20;;;;;;;7.02;65.32;96897.19;6318149;28;20185;-61
2022/09/08 02:25:27;;;;;;;2.22;2.03;;;;;;;7.06;65.47;96883.03;6318508;28;20036;-61
2022/09/08 02:28:32;;;;;;;2.33;1.77;;;;;;;7.09;65.50;96882.03;6317497;28;20044;-60
2022/09/08 02:31:33;;;;;;;3.35;2.25;;;;;;;7.14;65.56;96885.25;6337802;28;20042;-61
2022/09/08 02:34:34;;;;;;;2.75;1.95;;;;;;;7.21;65.40;96881.41;6329969;28;20044;-60
2022/09/08 02:37:36;;;;;;;2.22;2.00;;;;;;;7.45;64.41;96867.97;6315740;28;20056;-60
2022/09/08 02:40:38;;;;;;;1.77;1.58;;;;;;;7.64;63.97;96848.59;6318339;28;20062;-60
2022/09/08 02:43:42;;;;;;;6.28;4.53;;;;;;;7.76;63.88;96859.34;6316093;28;20044;-60
2022/09/08 02:46:46;;;;;;;6.38;3.47;;;;;;;8.01;62.98;96872.81;6319224;28;20036;-60
2022/09/08 02:49:49;;;;;;;2.85;2.08;;;;;;;8.15;62.11;96865.94;6323039;28;20048;-60
2022/09/08 02:52:54;;;;;;;2.75;1.48;;;;;;;8.26;61.95;96867.03;6322260;28;20051;-61
2022/09/08 02:55:59;;;;;;;1.73;1.58;;;;;;;8.41;61.79;96896.84;6322643;28;20497;-60
2022/09/08 02:59:00;;;;;;;2.30;1.40;;;;;;;8.59;61.12;96905.44;6321571;28;20135;-60
2022/09/08 03:02:02;;;;;;;1.60;1.50;;;;;;;8.68;61.02;96918.03;6321413;28;20055;-60
2022/09/08 03:05:03;;;;;;;1.58;1.40;;;;;;;8.80;60.29;96919.13;6318888;28;20438;-60
2022/09/08 03:08:09;;;;;;;1.75;1.50;;;;;;;8.87;60.51;96914.38;6295580;28;20395;-60
2022/09/08 03:11:10;;;;;;;1.73;1.45;;;;;;;8.81;60.90;96914.75;6296090;28;20049;-61
2022/09/08 03:14:12;;;;;;;1.70;1.60;;;;;;;8.80;60.81;96913.88;6314821;28;20580;-61
2022/09/08 03:17:19;;;;;;;2.50;2.15;;;;;;;8.82;60.79;96891.00;6316734;28;20040;-61
2022/09/08 03:20:24;;;;;;;2.28;1.67;;;;;;;9.00;61.07;96912.72;6319623;28;20503;-61
2022/09/08 03:23:30;;;;;;;3.15;2.00;;;;;;;9.18;60.30;96918.69;6319601;28;20071;-60
2022/09/08 03:26:34;;;;;;;1.90;1.67;;;;;;;9.17;60.24;96906.50;6321793;28;20046;-62
2022/09/08 03:29:36;;;;;;;2.65;2.28;;;;;;;9.30;59.82;96922.38;6319634;28;20056;-61
2022/09/08 03:32:41;;;;;;;2.05;1.85;;;;;;;9.26;59.48;96920.88;6320331;28;20134;-61
2022/09/08 03:35:48;;;;;;;2.08;1.77;;;;;;;9.16;59.54;96925.81;6321463;28;20044;-60
2022/09/08 03:38:51;;;;;;;2.83;2.00;;;;;;;9.20;59.64;96922.94;6313639;28;20408;-59
2022/09/08 03:41:54;;;;;;;2.65;1.85;;;;;;;9.14;60.00;96925.03;6320717;28;20036;-61
2022/09/08 03:45:01;;;;;;;2.40;1.88;;;;;;;9.22;59.99;96930.69;6321024;28;20040;-60
2022/09/08 03:48:04;;;;;;;2.63;1.85;;;;;;;9.25;59.68;96925.25;6314447;28;20515;-60
2022/09/08 03:51:15;;;;;;;2.15;1.50;;;;;;;9.28;59.61;96921.63;6318516;28;20054;-60
2022/09/08 03:57:42;;;;;;;1.90;1.80;;;;;;;9.41;59.48;96936.56;6318991;28;20048;-60
2022/09/08 04:00:46;;;;;;;3.17;2.88;;;;;;;9.42;59.19;96937.41;6315094;28;20564;-61
2022/09/08 04:03:47;;;;;;;2.55;2.30;;;;;;;9.36;59.67;96935.97;6318163;28;20040;-60
2022/09/08 04:06:52;;;;;;;3.28;2.05;;;;;;;9.29;59.93;96936.47;6321107;28;20039;-61
2022/09/08 04:09:53;;;;;;;2.70;2.30;;;;;;;9.36;60.33;96943.03;6320343;28;20051;-60
2022/09/08 04:12:55;;;;;;;3.10;1.60;;;;;;;9.33;60.17;96936.16;6320599;28;20134;-60
2022/09/08 04:15:56;;;;;;;2.00;1.85;;;;;;;9.53;59.58;96939.41;6319724;28;20055;-59
2022/09/08 04:19:00;;;;;;;3.17;1.88;;;;;;;9.68;59.78;96935.84;6317302;28;20363;-62
2022/09/08 04:22:02;;;;;;;2.15;1.80;;;;;;;9.82;59.26;96946.38;6319784;28;20044;-61
2022/09/08 04:25:05;;;;;;;3.55;1.77;;;;;;;10.07;58.69;96952.75;6318963;28;20048;-60
2022/09/08 04:28:06;;;;;;;2.33;1.90;;;;;;;10.14;58.50;96948.00;6319364;28;20603;-61
2022/09/08 04:31:17;;;;;;;1.50;1.40;;;;;;;10.26;58.38;96950.69;6320356;28;20036;-60
2022/09/08 04:34:21;;;;;;;1.63;1.50;;;;;;;10.49;57.80;96958.94;6294214;28;20044;-60
2022/09/08 04:37:22;;;;;;;2.00;1.80;;;;;;;10.74;57.00;96945.09;6314019;28;20073;-60
2022/09/08 04:40:26;;;;;;;2.55;1.60;;;;;;;10.93;56.34;96953.47;6317847;28;20043;-60
2022/09/08 04:43:27;;;;;;;2.25;1.58;;;;;;;11.00;56.51;96952.13;6316415;28;20130;-59
2022/09/08 04:46:36;;;;;;;1.73;1.63;;;;;;;11.19;56.17;96961.47;6319384;28;20438;-62
2022/09/08 04:49:40;;;;;;;2.03;1.67;;;;;;;11.36;55.83;96949.81;6319161;28;20040;-60
2022/09/08 04:52:42;;;;;;;1.80;1.42;;;;;;;11.55;55.25;96952.03;6319643;28;20660;-61
2022/09/08 04:55:48;;;;;;;2.30;1.67;;;;;;;11.76;54.80;96957.66;6316826;28;20047;-60
2022/09/08 04:58:50;;;;;;;2.28;2.13;;;;;;;11.94;54.26;96948.50;6313605;28;20048;-61
2022/09/08 05:01:52;;;;;;;3.05;1.75;;;;;;;12.15;53.13;96950.63;6315005;28;20052;-60
2022/09/08 05:04:58;;;;;;;1.90;1.48;;;;;;;12.13;52.50;96959.47;6319505;28;20036;-61
2022/09/08 05:08:03;;;;;;;2.05;1.80;;;;;;;12.11;52.55;96953.44;6319419;28;20461;-59
2022/09/08 05:11:05;;;;;;;1.50;1.40;;;;;;;12.41;50.74;96962.81;6293991;28;20107;-62
2022/09/08 05:14:07;;;;;;;4.75;1.33;;;;;;;12.53;50.21;96956.66;6293953;28;20166;-62
2022/09/08 05:17:09;;;;;;;1.67;1.33;;;;;;;12.72;49.56;96960.63;6305404;28;20040;-60
2022/09/08 05:20:12;;;;;;;;;;;;;;;13.20;48.78;96956.19;6316888;28;20094;-61
2022/09/08 05:23:16;;;;;;;1.75;1.38;;;;;;;13.43;48.38;96954.50;6318490;28;19945;-66
2022/09/08 05:26:21;;;;;;;1.33;1.05;;;;;;;14.15;47.06;96953.44;6319169;28;20537;-65
2022/09/08 05:29:25;;;;;;;0.93;0.90;;;;;;;15.13;45.26;96956.22;6300822;28;20072;-65
2022/09/08 05:32:27;;;;;;;1.20;1.10;;;;;;;16.98;40.51;96950.13;6318440;28;20061;-64
2022/09/08 05:35:31;;;;;;;0.80;0.75;;;;;;;18.05;38.41;96962.59;6317142;28;20044;-64
2022/09/08 05:38:36;;;;;;;0.85;0.80;;;;;;;18.29;36.60;96952.31;6319253;28;20044;-65
2022/09/08 05:41:39;;;;;;;1.13;0.70;;;;;;;18.03;36.29;96933.47;6319038;28;20425;-64
2022/09/08 05:44:43;;;;;;;1.13;0.90;;;;;;;17.86;37.22;96948.38;6319133;28;20127;-66
2022/09/08 05:47:47;;;;;;;4.30;0.85;;;;;;;18.24;35.37;96946.59;6317348;28;20040;-64
2022/09/08 05:50:51;;;;;;;0.90;0.70;;;;;;;18.42;35.66;96943.97;6298780;28;20169;-64
2022/09/08 05:53:52;;;;;;;;;;;;;;;19.48;33.75;96952.38;6314562;28;20040;-64
2022/09/08 05:56:54;;;;;;;0.80;0.80;;;;;;;20.34;31.27;96952.50;6314377;28;20389;-64
2022/09/08 06:00:00;;;;;;;2.63;0.57;;;;;;;21.85;29.25;96953.44;6316436;28;20089;-72
2022/09/08 06:03:09;;;;;;;0.70;0.68;;;;;;;23.71;26.59;96956.66;6308846;28;20424;-72
2022/09/08 06:06:14;;;;;;;0.82;0.50;;;;;;;24.86;25.16;96948.28;6295520;28;20044;-70
2022/09/08 06:09:18;;;;;;;1.08;0.60;;;;;;;25.28;23.66;96944.91;6314639;28;20066;-73
2022/09/08 06:12:20;;;;;;;1.10;0.45;;;;;;;24.20;25.51;96943.63;6292816;28;20039;-72
2022/09/08 06:15:22;;;;;;;0.98;0.40;;;;;;;23.57;25.47;96947.47;6297069;28;20181;-74
2022/09/08 06:18:26;;;;;;;1.17;0.40;;;;;;;22.31;27.32;96940.38;6293191;28;20064;-74
2022/09/08 06:21:32;;;;;;;0.82;0.70;;;;;;;21.12;27.98;96946.19;6317658;28;20052;-73
2022/09/08 06:24:36;;;;;;;1.17;0.80;;;;;;;19.48;29.96;96936.34;6323478;28;20044;-73
2022/09/08 06:27:51;;;;;;;2.25;0.70;;;;;;;18.62;31.25;96950.06;6320325;28;20033;-74
2022/09/08 06:30:56;;;;;;;0.95;0.60;;;;;;;17.61;32.92;96938.28;6323194;28;20509;-73
2022/09/08 06:34:03;;;;;;;1.42;0.82;;;;;;;17.30;33.10;96935.78;6323697;28;20048;-73
2022/09/08 06:37:18;;;;;;;2.15;0.90;;;;;;;17.14;32.50;96941.63;6323052;28;20047;-73
2022/09/08 06:40:45;;;;;;;0.98;0.90;;;;;;;16.98;33.15;96944.81;6322513;28;20527;-74
2022/09/08 06:43:53;;;;;;;1.17;0.73;;;;;;;16.72;33.76;96925.03;6322687;28;20040;-74
2022/09/08 06:46:57;;;;;;;0.60;0.60;;;;;;;17.30;32.88;96935.78;6322385;28;20056;-74
2022/09/08 06:50:06;;;;;;;1.13;0.80;;;;;;;17.62;32.24;96931.97;6322750;28;20039;-74
2022/09/08 06:53:17;;;;;;;1.23;0.98;;;;;;;18.69;30.72;96919.19;6322343;28;20986;-74
2022/09/08 06:56:39;;;;;;;1.30;0.68;;;;;;;19.01;29.23;96920.56;6302921;28;20067;-73
2022/09/08 06:59:55;;;;;;;2.78;1.00;;;;;;;19.07;29.18;96927.94;6314589;28;20166;-73
2022/09/08 07:03:17;;;;;;;1.35;1.10;;;;;;;18.48;29.82;96937.22;6297251;28;20053;-73
2022/09/08 07:06:25;;;;;;;1.98;1.10;;;;;;;17.42;30.72;96923.19;6317501;28;20059;-74
2022/09/08 07:09:56;;;;;;;1.75;1.20;;;;;;;16.96;30.88;96922.88;6321872;28;20133;-74
2022/09/08 07:13:12;;;;;;;1.00;0.90;;;;;;;17.03;30.84;96915.19;6318465;28;20143;-74
2022/09/08 07:16:36;;;;;;;1.30;1.02;;;;;;;17.40;30.54;96910.00;6320319;28;20040;-73
2022/09/08 07:19:49;;;;;;;1.27;1.00;;;;;;;16.80;31.71;96927.88;6317472;28;20519;-73
2022/09/08 07:23:26;;;;;;;2.13;1.08;;;;;;;16.26;32.22;96902.53;6302014;28;20444;-74
2022/09/08 07:26:46;;;;;;;2.38;1.67;;;;;;;15.94;32.22;96914.13;6318715;28;20524;-74
2022/09/08 07:29:53;;;;;;;2.20;1.63;;;;;;;15.45;33.45;96910.28;6321533;28;20578;-74
2022/09/08 07:33:24;;;;;;;2.15;1.42;;;;;;;15.19;34.21;96902.69;6314262;28;20560;-73
2022/09/08 07:36:38;;;;;;;3.53;1.80;;;;;;;15.02;33.77;96884.72;6315711;28;20048;-71
2022/09/08 07:39:51;;;;;;;1.88;1.50;;;;;;;14.90;33.93;96902.47;6320534;28;20044;-74
2022/09/08 07:42:58;;;;;;;3.63;2.05;;;;;;;14.88;34.20;96898.25;6321680;28;20044;-74
2022/09/08 07:46:27;;;;;;;2.20;1.33;;;;;;;14.61;35.67;96912.78;6317140;28;20547;-74
2022/09/08 07:49:31;;;;;;;2.92;1.98;;;;;;;14.44;35.81;96913.25;6308680;28;20513;-74
2022/09/08 07:52:40;;;;;;;3.72;2.30;;;;;;;14.82;35.62;96900.44;6318638;28;20070;-74
2022/09/08 07:55:46;;;;;;;4.75;1.58;;;;;;;15.67;33.95;96901.38;6326786;28;20429;-74
2022/09/08 07:59:11;;;;;;;2.30;1.80;;;;;;;16.96;31.92;96895.47;6322428;28;20181;-75
2022/09/08 08:02:30;;;;;;;2.00;1.60;;;;;;;17.38;31.07;96901.34;6298545;28;20052;-74
2022/09/08 08:06:01;;;;;;;2.35;1.30;;;;;;;16.96;32.08;96904.28;6320801;28;20036;-74
2022/09/08 08:09:16;;;;;;;1.70;1.50;;;;;;;16.13;33.69;96890.31;6320165;28;20044;-73
2022/09/08 08:12:54;;;;;;;1.63;1.50;;;;;;;15.57;34.49;96885.41;6318373;28;20040;-74
2022/09/08 08:16:09;;;;;;;1.70;1.40;;;;;;;15.61;34.73;96886.81;6320725;28;20420;-75
2022/09/08 08:19:41;;;;;;;2.55;1.55;;;;;;;15.94;34.21;96887.59;6318816;28;20043;-74
2022/09/08 08:22:48;;;;;;;2.30;1.70;;;;;;;16.03;33.94;96891.25;6319925;28;20056;-74
2022/09/08 08:26:18;;;;;;;1.73;1.20;;;;;;;16.35;33.69;96880.47;6320007;28;20059;-73
2022/09/08 08:30:01;;;;;;;1.83;1.33;;;;;;;16.54;33.40;96880.53;6319667;28;20509;-74
2022/09/08 08:33:19;;;;;;;2.50;2.20;;;;;;;16.64;33.45;96885.03;6193655;28;20204;-73
2022/09/08 08:36:26;;;;;;;6.63;4.13;;;;;;;16.39;34.15;96876.59;6196089;28;20125;-67
2022/09/08 08:39:30;;;;;;;4.57;2.42;;;;;;;16.05;34.15;96876.03;6314775;28;20040;-68
2022/09/08 08:42:51;;;;;;;5.07;3.10;;;;;;;15.88;34.57;96877.47;6311601;28;20044;-70
2022/09/08 08:46:25;;;;;;;5.85;3.83;;;;;;;15.92;33.85;96889.53;6310253;28;20040;-70
2022/09/08 08:49:38;;;;;;;2.67;2.15;;;;;;;15.55;34.30;96881.19;6306133;28;20040;-70
2022/09/08 08:53:10;;;;;;;3.78;1.90;;;;;;;15.63;34.08;96890.19;6309311;28;20039;-69
2022/09/08 08:56:27;;;;;;;2.00;1.40;;;;;;;15.34;33.36;96889.97;6277366;28;20044;-70
2022/09/08 08:59:59;;;;;;;4.05;1.70;;;;;;;15.25;33.13;96885.44;6306233;28;20040;-70
2022/09/08 09:03:15;;;;;;;2.70;1.48;;;;;;;15.21;33.10;96898.13;6309653;28;20040;-69
2022/09/08 09:06:38;;;;;;;1.85;1.35;;;;;;;15.06;33.37;96886.16;6313600;28;20043;-69
2022/09/08 09:09:51;;;;;;;1.83;1.45;;;;;;;14.91;33.61;96887.41;6314615;28;20602;-71
2022/09/08 09:13:32;;;;;;;1.42;1.33;;;;;;;14.98;33.82;96891.25;6309686;28;20044;-71
2022/09/08 09:16:48;;;;;;;2.00;1.40;;;;;;;14.99;33.71;96907.00;6314716;28;20047;-70
2022/09/08 09:19:50;;;;;;;2.25;1.80;;;;;;;14.70;34.64;96892.66;6315930;28;20044;-70
2022/09/08 09:23:05;;;;;;;3.10;2.05;;;;;;;14.43;35.39;96888.56;6313829;28;20048;-69
2022/09/08 09:26:18;;;;;;;4.00;2.33;;;;;;;14.14;35.95;96890.91;6313805;28;21301;-70
2022/09/08 09:29:28;;;;;;;3.50;2.08;;;;;;;14.15;35.82;96895.22;6311980;28;20051;-71
2022/09/08 09:32:45;;;;;;;1.70;1.40;;;;;;;13.79;36.06;96910.38;6289443;28;20146;-70
2022/09/08 09:36:10;;;;;;;1.60;1.30;;;;;;;13.63;36.46;96901.94;6312417;28;20048;-71
2022/09/08 09:39:29;;;;;;;1.70;1.20;;;;;;;13.76;36.49;96900.03;6313319;28;20059;-77
2022/09/08 09:42:52;;;;;;;2.00;1.77;;;;;;;13.51;36.94;96908.16;6312942;28;20044;-70
2022/09/08 09:46:08;;;;;;;2.20;1.45;;;;;;;13.37;37.24;96904.75;6313938;28;20039;-68
2022/09/08 09:49:27;;;;;;;2.08;1.55;;;;;;;13.36;37.04;96905.72;6309017;28;20047;-68
2022/09/08 09:52:59;;;;;;;2.83;1.90;;;;;;;13.27;37.42;96898.47;6305108;28;20173;-68
2022/09/08 09:56:31;;;;;;;1.60;1.40;;;;;;;13.38;37.53;96901.13;6313591;28;20040;-68
2022/09/08 09:59:47;;;;;;;3.72;1.52;;;;;;;13.44;37.68;96895.38;6307346;28;20170;-68
2022/09/08 10:03:07;;;;;;;3.03;1.20;;;;;;;13.47;37.88;96884.59;6315464;28;20047;-67
2022/09/08 10:06:23;;;;;;;2.10;1.50;;;;;;;13.78;37.43;96882.22;6314011;28;20444;-66
2022/09/08 10:09:59;;;;;;;1.67;1.27;;;;;;;13.99;37.49;96890.31;6312767;28;20421;-67
2022/09/08 10:13:31;;;;;;;2.27;1.40;;;;;;;14.14;37.85;96893.53;6312668;28;20131;-67
2022/09/08 10:17:06;;;;;;;;;;;;;;;14.38;36.64;96883.66;6275853;28;20048;-67
2022/09/08 10:20:22;;;;;;;;;;;;;;;14.38;36.87;96886.31;6318761;28;19923;-67
2022/09/08 10:23:37;;;;;;;2.85;1.50;;;;;;;14.41;37.05;96894.94;6313714;28;19920;-67
2022/09/08 10:27:00;;;;;;;2.13;1.48;;;;;;;14.56;36.77;96888.47;6317543;28;20035;-68
2022/09/08 10:30:17;;;;;;;2.38;1.52;;;;;;;14.66;36.70;96897.34;6315397;28;20530;-68
2022/09/08 10:33:39;;;;;;;1.48;1.38;;;;;;;14.87;36.21;96870.09;6320287;28;20051;-67
2022/09/08 10:36:57;;;;;;;1.52;1.20;;;;;;;15.21;35.92;96884.88;6317449;28;20035;-68
2022/09/08 10:40:07;;;;;;;1.60;1.50;;;;;;;15.57;35.39;96885.41;6296668;28;20044;-67
2022/09/08 10:43:38;;;;;;;1.75;1.33;;;;;;;16.05;34.69;96890.16;6314318;28;20055;-68
2022/09/08 10:47:11;;;;;;;3.65;1.50;;;;;;;16.75;32.97;96882.25;6315181;28;21495;-68
2022/09/08 10:50:23;;;;;;;2.40;1.88;;;;;;;17.25;32.02;96890.16;6315457;28;20035;-67
2022/09/08 10:53:45;;;;;;;2.55;1.58;;;;;;;18.04;30.33;96875.75;6318307;28;20449;-67
2022/09/08 10:56:49;;;;;;;;;;;;;;;19.31;29.05;96881.16;6309291;28;20548;-67
2022/09/08 10:59:59;;;;;;;2.00;1.80;;;;;;;19.62;27.17;96873.56;6294749;28;20014;-67
2022/09/08 11:03:28;;;;;;;1.88;1.58;;;;;;;19.76;27.32;96872.19;6312769;28;20049;-68
2022/09/08 11:06:54;;;;;;;2.22;1.80;;;;;;;21.11;25.59;96872.25;6309035;28;20039;-69
2022/09/08 11:10:20;;;;;;;2.78;1.40;;;;;;;20.59;25.30;96867.97;6297667;28;20398;-67
2022/09/08 11:13:27;;;;;;;1.98;1.60;;;;;;;20.19;25.14;96877.44;6317226;28;20789;-68
2022/09/08 11:16:46;;;;;;;1.77;1.30;;;;;;;20.15;25.66;96876.06;6309798;28;20047;-68
2022/09/08 11:19:57;;;;;;;1.85;1.35;;;;;;;20.26;25.56;96866.13;6316873;28;20043;-67
2022/09/08 11:23:22;;;;;;;1.77;1.40;;;;;;;19.69;26.21;96877.31;6316860;28;20094;-66
2022/09/08 11:26:42;;;;;;;1.83;1.30;;;;;;;18.71;27.58;96876.38;6308859;28;20044;-66
2022/09/08 11:30:06;;;;;;;3.55;1.20;;;;;;;18.06;27.97;96871.09;6318545;28;20059;-68
2022/09/08 11:33:21;;;;;;;1.75;1.20;;;;;;;17.39;29.00;96873.75;6314446;28;20044;-69
2022/09/08 11:36:23;;;;;;;3.03;1.33;;;;;;;16.72;30.10;96861.25;6312445;28;20181;-68
2022/09/08 11:39:38;;;;;;;3.72;2.05;;;;;;;16.20;31.03;96855.28;6313224;28;20051;-69
2022/09/08 11:43:17;;;;;;;7.80;3.30;;;;;;;15.75;31.88;96863.63;6315094;28;20048;-67
2022/09/08 11:46:30;;;;;;;2.13;1.65;;;;;;;15.65;32.10;96864.38;6300228;28;20076;-68
2022/09/08 11:50:10;;;;;;;1.63;1.43;;;;;;;15.19;32.98;96860.28;6308722;28;20055;-69
2022/09/08 11:53:39;;;;;;;1.95;1.40;;;;;;;15.11;33.12;96860.09;6301743;28;20480;-68
2022/09/08 11:57:01;;;;;;;2.17;1.95;;;;;;;14.78;33.50;96863.75;6309785;28;20520;-69
2022/09/08 12:00:29;;;;;;;2.70;1.90;;;;;;;14.85;33.65;96874.66;6316243;28;20040;-69
2022/09/08 12:03:50;;;;;;;3.00;1.98;;;;;;;14.72;33.71;96875.69;6317988;28;20044;-67
2022/09/08 12:07:17;;;;;;;3.15;1.88;;;;;;;14.56;34.00;96870.78;6308038;28;20049;-67
2022/09/08 12:10:40;;;;;;;3.47;2.10;;;;;;;14.44;34.25;96873.56;6308447;28;20043;-67
2022/09/08 12:14:01;;;;;;;2.45;2.25;;;;;;;14.46;34.69;96866.31;6298640;28;20055;-68
2022/09/08 12:17:47;;;;;;;1.77;1.50;;;;;;;14.45;34.75;96872.56;6319109;28;20047;-67
2022/09/08 12:21:07;;;;;;;1.55;1.40;;;;;;;14.24;35.18;96878.63;6256000;28;20047;-67
2022/09/08 12:24:27;;;;;;;3.50;1.85;;;;;;;14.19;35.27;96864.91;6318168;28;20070;-69
2022/09/08 12:27:39;;;;;;;;;;;;;;;14.19;35.30;96872.84;6316986;28;20063;-67
2022/09/08 12:31:18;;;;;;;1.63;1.30;;;;;;;13.92;35.75;96867.91;6318645;28;20353;-67
2022/09/08 12:34:31;;;;;;;2.65;1.77;;;;;;;13.81;36.32;96871.41;6313340;28;20040;-67
2022/09/08 12:37:38;;;;;;;2.22;2.00;;;;;;;13.50;36.97;96872.09;6319126;28;20048;-67
2022/09/08 12:41:07;;;;;;;2.33;1.77;;;;;;;13.44;37.48;96870.75;6316419;28;20178;-66
2022/09/08 12:44:31;;;;;;;3.25;1.67;;;;;;;13.34;37.77;96872.44;6316772;28;20089;-68
2022/09/08 12:47:53;;;;;;;3.33;1.88;;;;;;;13.38;38.04;96879.16;6295123;28;20494;-67
2022/09/08 12:51:09;;;;;;;2.17;1.40;;;;;;;13.30;38.62;96882.38;6309678;28;20120;-68
2022/09/08 12:54:28;;;;;;;1.63;1.20;;;;;;;13.30;38.49;96870.97;6299041;28;20055;-68
2022/09/08 12:57:54;;;;;;;2.00;1.40;;;;;;;13.47;38.40;96871.38;6312045;28;20497;-68
2022/09/08 13:01:05;;;;;;;2.55;1.70;;;;;;;13.53;38.52;96866.56;6311894;28;20040;-68
2022/09/08 13:04:39;;;;;;;3.45;1.65;;;;;;;13.51;38.94;96868.50;6315174;28;20030;-66
2022/09/08 13:07:55;;;;;;;2.15;1.67;;;;;;;13.38;39.47;96868.59;6315275;28;20121;-67
2022/09/08 13:11:28;;;;;;;1.83;1.50;;;;;;;13.15;39.77;96878.22;6316462;28;20040;-68
2022/09/08 13:14:35;;;;;;;5.85;2.78;;;;;;;13.10;40.20;96877.72;6314046;28;20048;-67
2022/09/08 13:18:00;;;;;;;4.22;2.60;;;;;;;12.95;40.69;96871.78;6315322;28;20176;-68
2022/09/08 13:21:41;;;;;;;3.50;2.45;;;;;;;12.77;40.96;96887.22;6314802;28;20481;-68
2022/09/08 13:25:12;;;;;;;5.25;2.33;;;;;;;12.70;41.32;96880.69;6315154;28;20178;-68
2022/09/08 13:28:27;;;;;;;2.03;1.67;;;;;;;12.76;41.66;96888.16;6309304;28;20044;-67
2022/09/08 13:32:00;;;;;;;2.75;1.73;;;;;;;12.55;42.72;96887.94;6315344;28;20580;-67
2022/09/08 13:35:22;;;;;;;5.00;2.20;;;;;;;12.61;42.28;96891.91;6311537;28;20478;-67
2022/09/08 13:38:58;;;;;;;4.43;2.47;;;;;;;12.61;42.68;96889.28;6314087;28;20193;-67
2022/09/08 13:42:37;;;;;;;1.65;1.50;;;;;;;12.56;42.72;96890.44;6315395;28;20036;-68
2022/09/08 13:45:52;;;;;;;2.25;1.80;;;;;;;12.43;42.83;96902.84;6311197;28;20135;-67
2022/09/08 13:49:25;;;;;;;2.92;1.80;;;;;;;12.35;42.54;96900.75;6314050;28;20409;-68
2022/09/08 13:52:48;;;;;;;2.80;2.10;;;;;;;12.08;43.31;96910.63;6316229;28;20052;-67
2022/09/08 13:56:19;;;;;;;2.45;2.08;;;;;;;11.82;44.06;96907.16;6316304;28;20127;-67
2022/09/08 13:59:40;;;;;;;2.47;1.88;;;;;;;11.60;45.13;96905.97;6313189;28;20593;-66
2022/09/08 14:02:50;;;;;;;3.33;1.63;;;;;;;11.43;45.70;96911.56;6312533;28;20047;-67
2022/09/08 14:05:55;;;;;;;2.43;1.63;;;;;;;11.31;45.89;96907.13;6315533;28;20044;-67
2022/09/08 14:09:25;;;;;;;3.25;2.20;;;;;;;11.30;46.16;96911.56;6314232;28;20074;-68
2022/09/08 14:12:28;;;;;;;2.22;1.85;;;;;;;11.26;45.93;96914.47;6315316;28;20048;-68
2022/09/08 14:15:41;;;;;;;2.60;2.20;;;;;;;11.15;46.25;96913.44;6306394;28;20173;-66
2022/09/08 14:19:01;;;;;;;3.60;2.10;;;;;;;11.13;46.31;96910.03;6315539;28;20055;-67
2022/09/08 14:22:33;;;;;;;3.30;2.20;;;;;;;11.05;46.65;96912.34;6312851;28;20424;-68
2022/09/08 14:25:36;;;;;;;2.72;2.40;;;;;;;10.93;47.29;96910.53;6315285;28;20055;-68
2022/09/08 14:28:50;;;;;;;3.22;2.25;;;;;;;10.88;47.79;96925.75;6314136;28;20036;-68
2022/09/08 14:32:22;;;;;;;3.25;2.95;;;;;;;10.78;48.17;96921.09;6315525;28;20123;-67
2022/09/08 14:35:43;;;;;;;3.20;2.60;;;;;;;10.80;48.37;96918.34;6310654;28;20043;-68
2022/09/08 14:39:05;;;;;;;4.97;2.33;;;;;;;10.75;49.03;96921.28;6292553;28;20039;-67
2022/09/08 14:42:23;;;;;;;2.95;2.63;;;;;;;10.72;49.21;96926.75;6316706;28;20102;-68
2022/09/08 14:45:46;;;;;;;5.10;2.63;;;;;;;10.68;49.45;96933.16;6316342;28;20459;-69
2022/09/08 14:49:08;;;;;;;2.85;2.20;;;;;;;10.63;49.81;96937.88;6320931;28;20193;-67
2022/09/08 14:52:47;;;;;;;4.75;2.45;;;;;;;10.59;49.75;96932.88;6312661;28;20058;-68
2022/09/08 14:56:24;;;;;;;2.50;2.15;;;;;;;10.52;50.16;96925.38;6318376;28;20134;-68
2022/09/08 14:59:32;;;;;;;4.60;2.50;;;;;;;10.54;50.12;96939.31;6317731;28;20048;-68
2022/09/08 15:02:58;;;;;;;2.88;2.25;;;;;;;10.55;50.50;96950.66;6315628;28;20040;-68
2022/09/08 15:06:00;;;;;;;4.82;2.88;;;;;;;10.54;50.47;96946.34;6313882;28;20052;-68
2022/09/08 15:09:58;;;;;;;4.43;2.97;;;;;;;10.56;50.50;96952.38;6318380;28;21175;-68
2022/09/08 15:13:14;;;;;;;4.32;3.20;;;;;;;10.51;50.64;96950.03;6294809;28;20154;-69
2022/09/08 15:16:23;;;;;;;3.70;3.23;;;;;;;10.50;50.84;96947.47;6317878;28;20052;-69
2022/09/08 15:19:38;;;;;;;2.75;2.50;;;;;;;10.52;50.93;96950.88;6317825;28;20997;-68
2022/09/08 15:23:11;;;;;;;2.95;2.42;;;;;;;10.50;51.11;96952.75;6317638;28;20124;-67
2022/09/08 15:26:15;;;;;;;4.72;3.30;;;;;;;10.45;51.28;96955.69;6316781;28;20048;-67